createdAt,value
2022-09-27T00:00:38.120Z,99.90
2022-09-27T00:05:40.630Z,99.90
2022-09-27T00:10:42.498Z,99.90
2022-09-27T00:15:44.560Z,99.90
2022-09-27T00:20:46.488Z,99.90
2022-09-27T00:25:58.645Z,99.90
2022-09-27T00:31:01.060Z,99.90
2022-09-27T00:36:07.052Z,99.90
2022-09-27T00:41:21.889Z,99.90
2022-09-27T00:46:35.849Z,99.90
2022-09-27T00:51:39.418Z,99.90
2022-09-27T00:56:42.740Z,99.90
2022-09-27T01:01:44.839Z,99.90
2022-09-27T01:06:47.360Z,99.90
2022-09-27T01:11:56.611Z,99.90
2022-09-27T01:17:15.688Z,99.90
2022-09-27T01:22:38.920Z,99.90
2022-09-27T01:28:02.353Z,99.90
2022-09-27T01:33:15.781Z,99.90
2022-09-27T01:38:23.409Z,99.90
2022-09-27T01:43:36.211Z,99.90
2022-09-27T01:48:42.869Z,99.90
2022-09-27T01:53:48.221Z,99.90
2022-09-27T01:58:56.108Z,99.90
2022-09-27T02:04:00.519Z,99.90
2022-09-27T02:09:09.147Z,99.90
2022-09-27T02:14:26.889Z,99.90
2022-09-27T02:19:39.508Z,99.90
2022-09-27T02:24:46.212Z,99.90
2022-09-27T02:30:00.733Z,99.90
2022-09-27T02:35:07.574Z,99.90
2022-09-27T02:40:10.178Z,99.90
2022-09-27T02:45:13.832Z,99.90
2022-09-27T02:50:41.948Z,99.90
2022-09-27T02:55:50.906Z,99.90
2022-09-27T03:01:09.430Z,99.90
2022-09-27T03:06:13.525Z,99.90
2022-09-27T03:11:15.488Z,99.90
2022-09-27T03:16:17.413Z,99.90
2022-09-27T03:21:19.968Z,99.90
2022-09-27T03:26:21.894Z,99.90
2022-09-27T03:31:23.912Z,99.90
2022-09-27T03:36:25.906Z,99.90
2022-09-27T03:41:27.828Z,99.90
2022-09-27T03:46:30.020Z,99.90
2022-09-27T03:51:31.972Z,99.90
2022-09-27T03:56:33.918Z,99.90
2022-09-27T04:01:37.758Z,99.90
2022-09-27T04:06:39.663Z,99.90
2022-09-27T04:11:41.552Z,99.90
2022-09-27T04:16:43.998Z,99.90
2022-09-27T04:21:46.132Z,99.90
2022-09-27T04:26:48.235Z,99.90
2022-09-27T04:31:50.101Z,99.90
2022-09-27T04:36:51.957Z,99.90
2022-09-27T04:41:54.972Z,99.90
2022-09-27T04:46:56.971Z,99.90
2022-09-27T04:51:58.951Z,99.90
2022-09-27T04:57:00.897Z,99.90
2022-09-27T05:02:03.168Z,99.90
2022-09-27T05:07:05.145Z,99.90
2022-09-27T05:12:08.750Z,99.90
2022-09-27T05:17:10.775Z,99.90
2022-09-27T05:22:12.818Z,99.90
2022-09-27T05:27:18.537Z,99.90
2022-09-27T05:32:21.156Z,99.90
2022-09-27T05:37:23.179Z,99.90
2022-09-27T05:42:25.141Z,99.90
2022-09-27T05:47:28.113Z,99.90
2022-09-27T05:52:30.069Z,99.90
2022-09-27T05:57:32.133Z,99.90
2022-09-27T06:02:35.332Z,99.90
2022-09-27T06:07:37.969Z,99.90
2022-09-27T06:12:41.685Z,99.90
2022-09-27T06:17:46.714Z,99.90
2022-09-27T06:22:48.789Z,99.90
2022-09-27T06:27:50.717Z,99.90
2022-09-27T06:33:00.526Z,99.90
2022-09-27T06:38:09.054Z,99.90
2022-09-27T06:43:12.034Z,99.90
2022-09-27T06:48:16.103Z,99.90
2022-09-27T06:53:18.002Z,99.90
2022-09-27T06:58:38.288Z,99.90
2022-09-27T07:03:43.139Z,99.90
2022-09-27T07:08:45.059Z,99.90
2022-09-27T07:13:46.936Z,99.90
2022-09-27T07:18:50.246Z,99.90
2022-09-27T07:23:52.484Z,99.90
2022-09-27T07:28:54.646Z,99.90
2022-09-27T07:33:56.536Z,99.90
2022-09-27T07:39:01.416Z,99.90
2022-09-27T07:44:03.380Z,99.90
2022-09-27T07:49:05.683Z,99.90
2022-09-27T07:54:08.858Z,99.90
2022-09-27T07:59:11.933Z,99.90
2022-09-27T08:04:13.816Z,99.90
2022-09-27T08:09:15.831Z,99.90
2022-09-27T08:14:18.750Z,99.90
2022-09-27T08:19:20.633Z,99.90
2022-09-27T08:24:26.067Z,99.90
2022-09-27T08:29:27.974Z,99.90
2022-09-27T08:34:29.837Z,99.90
2022-09-27T08:39:32.014Z,99.90
2022-09-27T08:44:43.294Z,99.90
2022-09-27T08:49:51.764Z,99.90
2022-09-27T08:54:56.771Z,99.90
2022-09-27T09:00:03.854Z,99.90
2022-09-27T09:05:15.216Z,99.90
2022-09-27T09:11:06.815Z,99.90
2022-09-27T09:16:47.446Z,99.90
2022-09-27T09:22:07.684Z,99.90
2022-09-27T09:27:27.641Z,99.90
2022-09-27T09:33:10.241Z,99.90
2022-09-27T09:39:04.955Z,99.90
2022-09-27T09:44:26.937Z,99.90
2022-09-27T09:49:57.275Z,99.90
2022-09-27T09:55:21.729Z,99.90
2022-09-27T10:00:23.933Z,99.90
2022-09-27T10:05:28.787Z,99.90
2022-09-27T10:10:30.824Z,99.90
2022-09-27T10:15:33.489Z,99.90
2022-09-27T10:20:52.261Z,99.90
2022-09-27T10:25:54.122Z,99.90
2022-09-27T10:30:57.141Z,99.90
2022-09-27T10:36:00.969Z,99.90
2022-09-27T10:41:44.141Z,99.90
2022-09-27T10:46:51.944Z,99.90
2022-09-27T10:51:57.184Z,99.90
2022-09-27T10:57:04.712Z,99.90
2022-09-27T11:02:21.161Z,99.90
2022-09-27T11:07:23.541Z,99.90
2022-09-27T11:12:25.529Z,99.90
2022-09-27T11:17:32.846Z,99.90
2022-09-27T11:22:53.196Z,99.90
2022-09-27T11:28:07.461Z,99.90
2022-09-27T11:33:23.814Z,99.90
2022-09-27T11:38:52.385Z,99.90
2022-09-27T11:44:23.773Z,99.90
2022-09-27T11:49:28.481Z,99.90
2022-09-27T11:54:48.627Z,99.90
2022-09-27T12:00:19.134Z,99.90
2022-09-27T12:05:58.413Z,99.90
2022-09-27T12:11:10.671Z,99.90
2022-09-27T12:16:13.516Z,99.90
2022-09-27T12:21:16.556Z,99.90
2022-09-27T12:26:26.069Z,99.90
2022-09-27T12:32:10.257Z,99.90
2022-09-27T12:37:25.726Z,99.90
2022-09-27T12:42:39.135Z,99.90
2022-09-27T12:47:51.426Z,99.90
2022-09-27T12:52:59.792Z,99.90
2022-09-27T12:58:26.267Z,99.90
2022-09-27T13:03:57.647Z,99.90
2022-09-27T13:09:13.860Z,99.90
2022-09-27T13:14:28.457Z,99.90
2022-09-27T13:19:59.761Z,99.90
2022-09-27T13:25:02.812Z,99.90
2022-09-27T13:30:07.529Z,99.90
2022-09-27T13:35:18.646Z,99.90
2022-09-27T13:40:24.458Z,99.90
2022-09-27T13:45:57.493Z,99.90
2022-09-27T13:51:19.092Z,99.90
2022-09-27T13:56:50.508Z,99.90
2022-09-27T14:01:55.168Z,99.90
2022-09-27T14:07:01.798Z,99.90
2022-09-27T14:12:10.270Z,99.90
2022-09-27T14:17:12.820Z,99.90
2022-09-27T14:22:18.281Z,99.90
2022-09-27T14:27:25.760Z,99.90
2022-09-27T14:32:31.597Z,99.90
2022-09-27T14:37:35.649Z,99.90
2022-09-27T14:42:38.145Z,99.90
2022-09-27T14:47:48.200Z,99.90
2022-09-27T14:52:55.522Z,99.90
2022-09-27T14:58:04.730Z,99.90
2022-09-27T15:03:50.461Z,99.90
2022-09-27T15:09:04.057Z,99.90
2022-09-27T15:14:06.146Z,99.90
2022-09-27T15:19:17.358Z,99.90
2022-09-27T15:24:41.463Z,99.90
2022-09-27T15:29:54.727Z,99.90
2022-09-27T15:34:57.445Z,99.90
2022-09-27T15:40:28.823Z,99.90
2022-09-27T15:45:36.093Z,99.90
2022-09-27T15:50:39.004Z,99.90
2022-09-27T15:55:43.572Z,99.90
2022-09-27T16:00:59.591Z,99.90
2022-09-27T16:06:04.058Z,99.90
2022-09-27T16:11:06.201Z,99.90
2022-09-27T16:16:16.147Z,99.90
2022-09-27T16:21:19.185Z,99.90
2022-09-27T16:26:24.009Z,99.90
2022-09-27T16:31:26.057Z,99.90
2022-09-27T16:36:27.998Z,99.90
2022-09-27T16:41:31.576Z,99.90
2022-09-27T16:46:34.630Z,99.90
2022-09-27T16:51:57.397Z,99.90
2022-09-27T16:57:00.239Z,99.90
2022-09-27T17:02:04.863Z,99.90
2022-09-27T17:07:06.909Z,99.90
2022-09-27T17:12:11.928Z,99.90
2022-09-27T17:17:13.994Z,99.90
2022-09-27T17:22:17.307Z,99.90
2022-09-27T17:27:22.886Z,99.90
2022-09-27T17:32:27.699Z,99.90
2022-09-27T17:37:29.805Z,99.60
2022-09-27T17:42:31.642Z,98.80
2022-09-27T17:47:52.326Z,98.40
2022-09-27T17:52:56.480Z,98.20
2022-09-27T17:57:58.317Z,97.90
2022-09-27T18:03:00.329Z,98.80
2022-09-27T18:08:03.668Z,99.50
2022-09-27T18:13:05.689Z,99.80
2022-09-27T18:18:07.780Z,99.90
2022-09-27T18:23:09.656Z,99.90
2022-09-27T18:28:12.473Z,99.90
2022-09-27T18:33:14.282Z,99.90
2022-09-27T18:38:16.178Z,99.90
2022-09-27T18:43:18.143Z,99.90
2022-09-27T18:48:19.995Z,99.90
2022-09-27T18:53:21.954Z,99.90
2022-09-27T18:58:23.818Z,99.90
2022-09-27T19:03:25.644Z,99.90
2022-09-27T19:08:27.567Z,99.90
2022-09-27T19:13:34.220Z,99.90
2022-09-27T19:18:41.876Z,99.90
2022-09-27T19:23:46.165Z,99.90
2022-09-27T19:28:48.273Z,99.90
2022-09-27T19:33:56.142Z,99.90
2022-09-27T19:39:02.274Z,99.90
2022-09-27T19:44:06.753Z,99.90
2022-09-27T19:49:08.664Z,99.90
2022-09-27T19:54:11.417Z,99.90
2022-09-27T19:59:13.409Z,99.90
2022-09-27T20:04:15.248Z,99.90
2022-09-27T20:09:20.071Z,99.90
2022-09-27T20:14:23.135Z,99.90
2022-09-27T20:19:25.022Z,99.90
2022-09-27T20:24:26.932Z,99.90
2022-09-27T20:29:28.814Z,99.90
2022-09-27T20:34:34.027Z,99.90
2022-09-27T20:39:36.098Z,99.90
2022-09-27T20:44:41.839Z,99.90
2022-09-27T20:49:46.491Z,99.90
2022-09-27T20:54:55.069Z,99.90
2022-09-27T20:59:57.334Z,99.90
2022-09-27T21:05:01.194Z,99.90
2022-09-27T21:10:11.875Z,99.90
2022-09-27T21:15:14.170Z,99.90
2022-09-27T21:20:45.172Z,99.90
2022-09-27T21:25:55.954Z,99.90
2022-09-27T21:31:03.241Z,99.90
2022-09-27T21:36:24.287Z,99.90
2022-09-27T21:47:26.264Z,99.90
2022-09-27T21:52:28.597Z,99.90
2022-09-27T21:57:30.456Z,99.90
2022-09-27T22:02:32.427Z,99.90
2022-09-27T22:07:35.850Z,99.90
2022-09-27T22:12:37.777Z,99.90
2022-09-27T22:17:39.641Z,99.90
2022-09-27T22:22:41.784Z,99.90
2022-09-27T22:27:43.605Z,99.90
2022-09-27T22:32:45.714Z,99.90
2022-09-27T22:37:47.945Z,99.90
2022-09-27T22:42:49.836Z,99.90
2022-09-27T22:47:51.865Z,99.90
2022-09-27T22:52:53.741Z,99.90
2022-09-27T22:57:55.588Z,99.90
2022-09-27T23:02:57.790Z,99.90
2022-09-27T23:07:59.631Z,99.90
2022-09-27T23:13:02.029Z,99.90
2022-09-27T23:18:06.229Z,99.90
2022-09-27T23:23:13.484Z,99.90
2022-09-27T23:28:15.429Z,99.90
2022-09-27T23:33:17.328Z,99.90
2022-09-27T23:38:19.493Z,99.90
2022-09-27T23:43:21.318Z,99.90
2022-09-27T23:48:26.794Z,99.90
2022-09-27T23:53:28.736Z,99.90
2022-09-27T23:58:40.858Z,99.90
